createdAt,value
2019-01-15T00:00:59.873Z,4.40
2019-01-15T00:03:29.832Z,4.40
2019-01-15T00:05:59.700Z,4.30
2019-01-15T00:08:30.008Z,4.20
2019-01-15T00:11:01.118Z,4.20
2019-01-15T00:13:30.994Z,4.20
2019-01-15T00:16:00.920Z,4.30
2019-01-15T00:18:30.816Z,4.30
2019-01-15T00:21:00.647Z,4.20
2019-01-15T00:23:30.596Z,4.30
2019-01-15T00:26:00.468Z,4.30
2019-01-15T00:28:30.351Z,4.20
2019-01-15T00:31:00.283Z,4.30
2019-01-15T00:33:30.305Z,4.40
2019-01-15T00:36:00.384Z,4.30
2019-01-15T00:38:30.423Z,4.30
2019-01-15T00:41:00.347Z,4.40
2019-01-15T00:43:30.293Z,4.20
2019-01-15T00:46:00.166Z,4.20
2019-01-15T00:48:30.200Z,4.30
2019-01-15T00:51:00.120Z,4.30
2019-01-15T00:53:30.057Z,4.20
2019-01-15T00:55:59.919Z,4.20
2019-01-15T00:58:29.861Z,4.10
2019-01-15T01:00:59.824Z,4.10
2019-01-15T01:03:29.782Z,4.20
2019-01-15T01:05:59.708Z,4.20
2019-01-15T01:08:29.571Z,4.10
2019-01-15T01:10:59.499Z,4.10
2019-01-15T01:13:29.869Z,4.30
2019-01-15T01:15:59.712Z,4.30
2019-01-15T01:18:29.718Z,4.20
2019-01-15T01:20:59.628Z,4.10
2019-01-15T01:23:29.573Z,4.00
2019-01-15T01:25:59.412Z,4.00
2019-01-15T01:28:29.427Z,4.10
2019-01-15T01:30:59.444Z,3.90
2019-01-15T01:33:29.376Z,3.80
2019-01-15T01:35:59.367Z,3.90
2019-01-15T01:38:29.412Z,3.80
2019-01-15T01:40:59.274Z,3.80
2019-01-15T01:43:29.160Z,3.80
2019-01-15T01:45:59.095Z,3.80
2019-01-15T01:48:28.972Z,3.80
2019-01-15T01:50:58.850Z,3.90
2019-01-15T01:53:28.691Z,3.90
2019-01-15T01:55:58.880Z,4.10
2019-01-15T01:58:28.899Z,4.00
2019-01-15T02:00:58.818Z,3.80
2019-01-15T02:03:28.616Z,3.90
2019-01-15T02:05:58.518Z,3.90
2019-01-15T02:08:28.313Z,4.00
2019-01-15T02:10:58.151Z,4.10
2019-01-15T02:13:28.016Z,3.90
2019-01-15T02:15:57.957Z,4.00
2019-01-15T02:18:27.814Z,4.00
2019-01-15T02:20:57.664Z,3.90
2019-01-15T02:23:27.663Z,3.90
2019-01-15T02:25:57.578Z,3.90
2019-01-15T02:28:27.445Z,4.00
2019-01-15T02:30:57.321Z,3.90
2019-01-15T02:33:27.249Z,3.90
2019-01-15T02:35:57.181Z,4.20
2019-01-15T02:38:27.057Z,4.30
2019-01-15T02:40:56.904Z,4.30
2019-01-15T02:43:26.905Z,4.30
2019-01-15T02:45:56.871Z,4.30
2019-01-15T02:48:26.822Z,4.30
2019-01-15T02:50:56.760Z,4.40
2019-01-15T02:53:26.932Z,4.50
2019-01-15T02:55:56.849Z,4.60
2019-01-15T02:58:26.755Z,4.50
2019-01-15T03:00:56.631Z,4.60
2019-01-15T03:03:26.522Z,4.60
2019-01-15T03:05:56.452Z,4.60
2019-01-15T03:08:26.509Z,4.60
2019-01-15T03:10:56.399Z,4.70
2019-01-15T03:13:26.299Z,4.70
2019-01-15T03:15:56.128Z,4.60
2019-01-15T03:18:25.986Z,4.40
2019-01-15T03:20:55.837Z,4.20
2019-01-15T03:23:25.799Z,4.20
2019-01-15T03:25:55.620Z,4.20
2019-01-15T03:28:25.485Z,4.20
2019-01-15T03:30:55.378Z,4.30
2019-01-15T03:33:25.276Z,4.30
2019-01-15T03:35:55.125Z,4.20
2019-01-15T03:38:25.080Z,4.40
2019-01-15T03:40:55.015Z,4.20
2019-01-15T03:43:24.888Z,4.30
2019-01-15T03:45:54.747Z,4.10
2019-01-15T03:48:24.693Z,4.30
2019-01-15T03:50:54.632Z,4.30
2019-01-15T03:53:24.489Z,4.00
2019-01-15T03:55:54.434Z,4.00
2019-01-15T03:58:24.265Z,4.20
2019-01-15T04:00:54.145Z,4.30
2019-01-15T04:03:23.975Z,4.30
2019-01-15T04:05:53.913Z,4.50
2019-01-15T04:08:23.764Z,4.50
2019-01-15T04:10:53.801Z,4.60
2019-01-15T04:13:23.660Z,4.40
2019-01-15T04:15:53.749Z,4.50
2019-01-15T04:18:23.608Z,4.50
2019-01-15T04:20:53.493Z,4.50
2019-01-15T04:23:23.445Z,4.50
2019-01-15T04:25:53.333Z,4.50
2019-01-15T04:28:23.196Z,4.50
2019-01-15T04:30:53.155Z,4.50
2019-01-15T04:33:24.771Z,4.50
2019-01-15T04:35:54.715Z,4.50
2019-01-15T04:38:24.655Z,4.50
2019-01-15T04:40:54.560Z,4.50
2019-01-15T04:43:24.528Z,4.50
2019-01-15T04:45:54.499Z,4.50
2019-01-15T04:48:24.363Z,4.60
2019-01-15T04:50:54.340Z,4.70
2019-01-15T04:53:24.472Z,4.70
2019-01-15T04:55:54.538Z,4.60
2019-01-15T04:58:24.546Z,4.30
2019-01-15T05:00:54.487Z,4.30
2019-01-15T05:03:25.211Z,4.30
2019-01-15T05:05:55.304Z,4.30
2019-01-15T05:08:25.362Z,4.30
2019-01-15T05:10:55.275Z,4.40
2019-01-15T05:13:27.544Z,4.30
2019-01-15T05:15:57.512Z,4.20
2019-01-15T05:18:27.575Z,4.10
2019-01-15T05:20:57.487Z,4.00
2019-01-15T05:23:27.439Z,4.00
2019-01-15T05:25:57.417Z,3.80
2019-01-15T05:28:27.325Z,4.00
2019-01-15T05:30:57.350Z,3.90
2019-01-15T05:33:27.224Z,4.00
2019-01-15T05:35:57.244Z,3.90
2019-01-15T05:38:27.968Z,4.00
2019-01-15T05:40:57.943Z,3.90
2019-01-15T05:43:35.261Z,3.70
2019-01-15T05:45:59.366Z,3.80
2019-01-15T05:48:34.966Z,3.90
2019-01-15T05:51:10.037Z,4.00
2019-01-15T05:53:39.876Z,4.10
2019-01-15T05:56:09.835Z,4.10
2019-01-15T05:58:39.772Z,4.20
2019-01-15T06:01:09.788Z,4.30
2019-01-15T06:03:40.431Z,4.10
2019-01-15T06:06:10.454Z,4.20
2019-01-15T06:08:40.749Z,4.00
2019-01-15T06:11:10.732Z,4.00
2019-01-15T06:13:42.803Z,4.10
2019-01-15T06:16:12.181Z,4.10
2019-01-15T06:18:42.105Z,4.20
2019-01-15T06:21:11.992Z,4.30
2019-01-15T06:23:41.938Z,4.30
2019-01-15T06:26:12.001Z,4.30
2019-01-15T06:28:42.221Z,4.30
2019-01-15T06:31:12.895Z,4.30
2019-01-15T06:33:42.888Z,4.20
2019-01-15T06:36:12.856Z,4.00
2019-01-15T06:38:42.760Z,4.10
2019-01-15T06:41:12.697Z,4.30
2019-01-15T06:43:49.729Z,4.20
2019-01-15T06:46:14.221Z,4.20
2019-01-15T06:48:44.201Z,4.40
2019-01-15T06:51:14.298Z,4.60
2019-01-15T06:53:44.599Z,4.40
2019-01-15T06:56:14.626Z,4.40
2019-01-15T06:58:44.613Z,4.50
2019-01-15T07:01:14.575Z,4.50
2019-01-15T07:03:44.428Z,4.60
2019-01-15T07:06:14.433Z,4.60
2019-01-15T07:08:44.279Z,4.50
2019-01-15T07:11:14.172Z,4.60
2019-01-15T07:13:44.076Z,4.60
2019-01-15T07:16:14.086Z,4.70
2019-01-15T07:18:44.030Z,4.70
2019-01-15T07:21:14.061Z,4.70
2019-01-15T07:23:44.077Z,4.70
2019-01-15T07:26:15.231Z,4.70
2019-01-15T07:28:45.148Z,4.60
2019-01-15T07:31:15.160Z,4.70
2019-01-15T07:33:45.113Z,4.80
2019-01-15T07:36:15.028Z,4.90
2019-01-15T07:38:44.915Z,5.00
2019-01-15T07:41:14.804Z,4.90
2019-01-15T07:43:44.787Z,4.80
2019-01-15T07:46:14.636Z,4.90
2019-01-15T07:48:44.490Z,5.00
2019-01-15T07:51:14.423Z,5.00
2019-01-15T07:53:44.335Z,4.90
2019-01-15T07:56:14.165Z,4.70
2019-01-15T07:58:44.102Z,4.90
2019-01-15T08:01:14.996Z,4.80
2019-01-15T08:03:44.969Z,4.70
2019-01-15T08:06:14.837Z,4.70
2019-01-15T08:08:44.812Z,4.90
2019-01-15T08:11:14.749Z,4.90
2019-01-15T08:13:44.685Z,4.80
2019-01-15T08:16:15.191Z,4.90
2019-01-15T08:18:45.163Z,4.80
2019-01-15T08:21:15.069Z,5.00
2019-01-15T08:23:45.017Z,5.00
2019-01-15T08:26:14.908Z,4.80
2019-01-15T08:28:44.842Z,4.90
2019-01-15T08:31:14.725Z,4.90
2019-01-15T08:33:44.630Z,4.90
2019-01-15T08:36:14.564Z,4.90
2019-01-15T08:38:44.487Z,4.90
2019-01-15T08:41:14.522Z,5.00
2019-01-15T08:43:44.478Z,5.10
2019-01-15T08:46:14.432Z,5.00
2019-01-15T08:48:44.402Z,5.00
2019-01-15T08:51:15.314Z,5.10
2019-01-15T08:53:45.925Z,4.90
2019-01-15T08:56:15.872Z,4.90
2019-01-15T08:58:45.809Z,5.10
2019-01-15T09:01:15.700Z,5.30
2019-01-15T09:03:45.662Z,5.30
2019-01-15T09:06:15.618Z,5.30
2019-01-15T09:08:45.512Z,5.30
2019-01-15T09:11:15.451Z,5.20
2019-01-15T09:13:45.434Z,5.30
2019-01-15T09:16:15.406Z,5.40
2019-01-15T09:18:45.419Z,5.50
2019-01-15T09:21:15.360Z,5.50
2019-01-15T09:23:45.183Z,5.40
2019-01-15T09:26:15.440Z,5.50
2019-01-15T09:28:46.227Z,5.60
2019-01-15T09:31:16.175Z,5.50
2019-01-15T09:33:46.021Z,5.40
2019-01-15T09:36:18.207Z,5.50
2019-01-15T09:38:48.172Z,5.20
2019-01-15T09:41:18.155Z,5.40
2019-01-15T09:43:47.964Z,5.40
2019-01-15T09:46:17.990Z,5.60
2019-01-15T09:48:48.286Z,5.50
2019-01-15T09:51:18.211Z,5.70
2019-01-15T09:53:48.484Z,5.60
2019-01-15T09:56:20.212Z,5.60
2019-01-15T09:58:50.150Z,5.60
2019-01-15T10:01:20.149Z,5.80
2019-01-15T10:03:50.103Z,5.70
2019-01-15T10:06:20.188Z,5.80
2019-01-15T10:08:50.103Z,5.70
2019-01-15T10:11:20.480Z,5.70
2019-01-15T10:13:50.416Z,5.50
2019-01-15T10:16:20.351Z,5.70
2019-01-15T10:18:50.396Z,5.70
2019-01-15T10:21:20.293Z,5.60
2019-01-15T10:23:50.711Z,5.70
2019-01-15T10:26:20.579Z,5.70
2019-01-15T10:28:50.579Z,5.70
2019-01-15T10:31:59.783Z,5.80
2019-01-15T10:34:36.276Z,5.80
2019-01-15T10:37:04.981Z,5.90
2019-01-15T10:39:34.827Z,5.90
2019-01-15T10:42:04.769Z,6.00
2019-01-15T10:44:34.683Z,5.90
2019-01-15T10:47:04.548Z,5.90
2019-01-15T10:49:34.869Z,6.00
2019-01-15T10:52:08.631Z,6.00
2019-01-15T10:54:38.523Z,5.90
2019-01-15T10:57:08.447Z,5.80
2019-01-15T10:59:38.514Z,5.80
2019-01-15T11:02:08.460Z,5.90
2019-01-15T11:04:41.515Z,6.00
2019-01-15T11:07:11.371Z,5.80
2019-01-15T11:09:41.330Z,5.90
2019-01-15T11:12:14.384Z,5.80
2019-01-15T11:14:44.515Z,5.80
2019-01-15T11:17:14.424Z,6.10
2019-01-15T11:19:44.490Z,6.10
2019-01-15T11:22:14.375Z,6.10
2019-01-15T11:24:44.433Z,6.20
2019-01-15T11:27:14.445Z,6.20
2019-01-15T11:29:44.482Z,6.10
2019-01-15T11:32:14.376Z,6.00
2019-01-15T11:34:44.229Z,6.00
2019-01-15T11:37:14.270Z,6.20
2019-01-15T11:39:47.094Z,6.30
2019-01-15T11:42:17.431Z,6.10
2019-01-15T11:44:50.458Z,6.30
2019-01-15T11:47:20.359Z,6.30
2019-01-15T11:49:51.318Z,6.40
2019-01-15T11:52:22.608Z,6.50
2019-01-15T11:54:52.832Z,6.60
2019-01-15T11:57:22.687Z,6.50
2019-01-15T11:59:52.656Z,6.50
2019-01-15T12:02:34.967Z,6.50
2019-01-15T12:05:36.294Z,6.40
2019-01-15T12:08:28.325Z,6.50
2019-01-15T12:11:20.117Z,6.60
2019-01-15T12:14:09.044Z,6.50
2019-01-15T12:17:04.020Z,6.50
2019-01-15T12:19:59.121Z,6.50
2019-01-15T12:22:57.076Z,6.60
2019-01-15T12:25:40.312Z,6.60
2019-01-15T12:28:46.144Z,6.60
2019-01-15T12:31:35.051Z,6.70
2019-01-15T12:34:24.047Z,6.70
2019-01-15T12:37:28.429Z,6.70
2019-01-15T12:40:17.603Z,6.70
2019-01-15T12:43:05.262Z,6.80
2019-01-15T12:45:54.392Z,6.80
2019-01-15T12:48:42.420Z,6.80
2019-01-15T12:51:40.335Z,6.90
2019-01-15T12:54:20.369Z,6.90
2019-01-15T12:57:04.899Z,6.80
2019-01-15T13:00:03.720Z,6.80
2019-01-15T13:02:48.050Z,6.70
2019-01-15T13:05:35.684Z,6.70
2019-01-15T13:08:27.221Z,6.80
2019-01-15T13:11:25.099Z,6.70
2019-01-15T13:14:23.140Z,6.70
2019-01-15T13:17:14.856Z,6.80
2019-01-15T13:20:03.799Z,6.90
2019-01-15T13:22:51.594Z,6.90
2019-01-15T13:25:52.411Z,6.90
2019-01-15T13:28:33.713Z,6.90
2019-01-15T13:31:29.033Z,6.80
2019-01-15T13:34:17.972Z,6.80
2019-01-15T13:37:05.391Z,7.00
2019-01-15T13:39:52.981Z,7.00
2019-01-15T13:42:40.630Z,7.10
2019-01-15T13:45:41.853Z,7.20
2019-01-15T13:48:29.355Z,7.20
2019-01-15T13:51:21.268Z,7.10
2019-01-15T13:54:16.128Z,7.00
2019-01-15T13:57:05.020Z,7.00
2019-01-15T13:59:57.396Z,7.00
2019-01-15T14:02:42.330Z,7.00
2019-01-15T14:05:40.330Z,7.10
2019-01-15T14:08:27.827Z,7.10
2019-01-15T14:11:10.478Z,7.10
2019-01-15T14:14:08.478Z,7.10
2019-01-15T14:17:06.764Z,7.10
2019-01-15T14:19:55.391Z,7.20
2019-01-15T14:23:04.282Z,7.10
2019-01-15T14:25:43.054Z,7.10
2019-01-15T14:28:29.020Z,7.20
2019-01-15T14:31:27.230Z,7.00
2019-01-15T14:34:23.813Z,7.00
2019-01-15T14:37:14.843Z,7.10
2019-01-15T14:40:02.644Z,7.10
2019-01-15T14:42:50.407Z,7.00
2019-01-15T14:45:56.532Z,7.10
2019-01-15T14:48:42.313Z,6.90
2019-01-15T14:51:37.340Z,6.80
2019-01-15T14:54:36.769Z,7.00
2019-01-15T14:57:19.303Z,7.00
2019-01-15T15:00:08.567Z,6.90
2019-01-15T15:02:50.461Z,7.00
2019-01-15T15:05:28.251Z,7.00
2019-01-15T15:08:16.207Z,7.10
2019-01-15T15:11:23.208Z,7.10
2019-01-15T15:14:12.115Z,6.90
2019-01-15T15:16:54.024Z,7.00
2019-01-15T15:19:34.884Z,7.00
2019-01-15T15:22:22.517Z,7.10
2019-01-15T15:25:11.409Z,7.10
2019-01-15T15:27:51.759Z,7.10
2019-01-15T15:30:39.752Z,7.10
2019-01-15T15:33:34.995Z,7.20
2019-01-15T15:36:42.733Z,7.20
2019-01-15T15:39:40.595Z,7.30
2019-01-15T15:42:21.366Z,7.20
2019-01-15T15:44:58.492Z,7.20
2019-01-15T15:47:45.025Z,7.10
2019-01-15T15:50:36.957Z,7.10
2019-01-15T15:53:31.760Z,7.00
2019-01-15T15:56:20.679Z,7.10
2019-01-15T15:59:11.737Z,7.30
2019-01-15T16:01:59.383Z,7.20
2019-01-15T16:04:47.474Z,7.10
2019-01-15T16:07:36.490Z,7.20
2019-01-15T16:10:40.445Z,7.20
2019-01-15T16:13:35.257Z,7.20
2019-01-15T16:16:39.427Z,7.30
2019-01-15T16:19:43.473Z,7.40
2019-01-15T16:22:40.071Z,7.20
2019-01-15T16:25:28.917Z,7.30
2019-01-15T16:28:18.407Z,7.10
2019-01-15T16:30:57.717Z,7.10
2019-01-15T16:33:45.665Z,7.20
2019-01-15T16:36:27.987Z,7.20
2019-01-15T16:39:12.827Z,7.20
2019-01-15T16:42:01.697Z,7.20
2019-01-15T16:44:41.541Z,7.20
2019-01-15T16:47:36.875Z,7.30
2019-01-15T16:50:25.710Z,7.20
2019-01-15T16:53:15.503Z,7.30
2019-01-15T16:56:03.429Z,7.30
2019-01-15T16:58:58.119Z,7.10
2019-01-15T17:01:56.201Z,7.20
2019-01-15T17:04:39.335Z,7.10
2019-01-15T17:07:26.884Z,7.20
2019-01-15T17:10:14.430Z,7.20
2019-01-15T17:13:21.848Z,7.10
2019-01-15T17:16:15.038Z,7.10
2019-01-15T17:19:06.824Z,7.00
2019-01-15T17:21:55.722Z,7.20
2019-01-15T17:24:35.881Z,7.20
2019-01-15T17:27:32.143Z,7.10
2019-01-15T17:30:14.957Z,7.20
2019-01-15T17:33:07.942Z,7.30
2019-01-15T17:35:57.056Z,7.20
2019-01-15T17:38:58.275Z,7.30
2019-01-15T17:42:02.325Z,7.30
2019-01-15T17:44:51.334Z,7.40
2019-01-15T17:47:44.229Z,7.40
2019-01-15T17:50:36.651Z,7.40
2019-01-15T17:53:25.421Z,7.40
2019-01-15T17:56:20.595Z,7.30
2019-01-15T17:59:12.654Z,7.30
2019-01-15T18:02:00.494Z,7.40
2019-01-15T18:04:58.617Z,7.50
2019-01-15T18:07:50.553Z,7.50
2019-01-15T18:10:57.877Z,7.60
2019-01-15T18:13:45.728Z,7.60
2019-01-15T18:16:48.727Z,7.60
2019-01-15T18:19:36.730Z,7.60
2019-01-15T18:22:18.475Z,7.60
2019-01-15T18:25:12.733Z,7.50
2019-01-15T18:28:01.553Z,7.50
2019-01-15T18:30:50.529Z,7.40
2019-01-15T18:33:40.802Z,7.40
2019-01-15T18:36:42.122Z,7.40
2019-01-15T18:39:30.063Z,7.40
2019-01-15T18:42:16.749Z,7.40
2019-01-15T18:44:58.275Z,7.40
2019-01-15T18:47:42.087Z,7.30
2019-01-15T18:50:30.061Z,7.40
2019-01-15T18:53:22.101Z,7.40
2019-01-15T18:56:20.057Z,7.30
2019-01-15T18:59:05.409Z,7.30
2019-01-15T19:01:53.375Z,7.30
2019-01-15T19:04:33.593Z,7.30
2019-01-15T19:07:34.592Z,7.30
2019-01-15T19:10:36.230Z,7.20
2019-01-15T19:13:25.143Z,7.30
2019-01-15T19:16:23.474Z,7.40
2019-01-15T19:19:11.080Z,7.40
2019-01-15T19:22:02.640Z,7.30
2019-01-15T19:24:54.315Z,7.40
2019-01-15T19:27:46.118Z,7.40
2019-01-15T19:30:33.935Z,7.40
2019-01-15T19:33:21.945Z,7.40
2019-01-15T19:36:11.131Z,7.40
2019-01-15T19:39:09.267Z,7.50
2019-01-15T19:41:58.919Z,7.40
2019-01-15T19:44:58.050Z,7.50
2019-01-15T19:47:47.851Z,7.60
2019-01-15T19:50:35.594Z,7.60
2019-01-15T19:53:27.421Z,7.40
2019-01-15T19:56:22.453Z,7.50
2019-01-15T19:59:05.722Z,7.50
2019-01-15T20:01:50.539Z,7.50
2019-01-15T20:04:38.293Z,7.50
2019-01-15T20:07:19.326Z,7.50
2019-01-15T20:10:06.961Z,7.50
2019-01-15T20:12:55.920Z,7.50
2019-01-15T20:15:38.706Z,7.50
2019-01-15T20:18:36.588Z,7.60
2019-01-15T20:21:40.940Z,7.60
2019-01-15T20:24:32.766Z,7.60
2019-01-15T20:27:16.907Z,7.60
2019-01-15T20:30:05.621Z,7.70
2019-01-15T20:32:53.367Z,7.60
2019-01-15T20:35:42.834Z,7.70
2019-01-15T20:38:30.462Z,7.60
2019-01-15T20:41:18.219Z,7.60
2019-01-15T20:44:00.141Z,7.50
2019-01-15T20:47:02.378Z,7.50
2019-01-15T20:49:57.384Z,7.50
2019-01-15T20:52:45.163Z,7.50
2019-01-15T20:55:33.529Z,7.50
2019-01-15T20:58:31.164Z,7.40
2019-01-15T21:01:22.949Z,7.50
2019-01-15T21:04:11.836Z,7.60
2019-01-15T21:07:05.488Z,7.40
2019-01-15T21:09:57.134Z,7.50
2019-01-15T21:12:48.244Z,7.30
2019-01-15T21:15:48.216Z,7.30
2019-01-15T21:18:50.838Z,7.50
2019-01-15T21:21:39.409Z,7.60
2019-01-15T21:24:32.250Z,7.50
2019-01-15T21:27:33.917Z,7.50
2019-01-15T21:30:30.765Z,7.50
2019-01-15T21:33:22.833Z,7.60
2019-01-15T21:36:07.381Z,7.60
2019-01-15T21:38:51.396Z,7.70
2019-01-15T21:41:56.106Z,7.70
2019-01-15T21:44:43.667Z,7.70
2019-01-15T21:47:40.781Z,7.70
2019-01-15T21:50:32.824Z,7.70
2019-01-15T21:53:20.660Z,7.60
2019-01-15T21:56:10.800Z,7.60
2019-01-15T21:58:59.737Z,7.70
2019-01-15T22:01:54.697Z,7.60
2019-01-15T22:04:45.038Z,7.50
2019-01-15T22:07:25.679Z,7.60
2019-01-15T22:10:13.439Z,7.60
2019-01-15T22:13:05.241Z,7.40
2019-01-15T22:15:44.947Z,7.40
2019-01-15T22:18:34.108Z,7.30
2019-01-15T22:21:38.553Z,7.40
2019-01-15T22:24:33.206Z,7.50
2019-01-15T22:27:10.241Z,7.40
2019-01-15T22:29:59.210Z,7.50
2019-01-15T22:32:47.252Z,7.60
2019-01-15T22:35:34.821Z,7.60
2019-01-15T22:38:38.932Z,7.40
2019-01-15T22:41:28.207Z,7.40
2019-01-15T22:44:09.877Z,7.40
2019-01-15T22:46:59.029Z,7.40
2019-01-15T22:49:48.010Z,7.50
2019-01-15T22:52:35.779Z,7.40
2019-01-15T22:55:14.343Z,7.30
2019-01-15T22:57:52.268Z,7.50
2019-01-15T23:00:44.797Z,7.60
2019-01-15T23:03:27.726Z,7.70
2019-01-15T23:06:16.649Z,7.50
2019-01-15T23:09:14.705Z,7.50
2019-01-15T23:12:09.126Z,7.50
2019-01-15T23:14:54.440Z,7.60
2019-01-15T23:17:43.160Z,7.60
2019-01-15T23:20:41.208Z,7.60
2019-01-15T23:23:28.453Z,7.60
2019-01-15T23:26:10.988Z,7.60
2019-01-15T23:28:53.276Z,7.70
2019-01-15T23:31:39.376Z,7.80
2019-01-15T23:34:23.485Z,7.70
2019-01-15T23:37:11.337Z,7.70
2019-01-15T23:40:12.385Z,7.60
2019-01-15T23:42:58.209Z,7.60
2019-01-15T23:45:44.494Z,7.70
2019-01-15T23:48:33.372Z,7.70
2019-01-15T23:51:21.222Z,7.70
2019-01-15T23:54:08.725Z,7.60
2019-01-15T23:56:50.194Z,7.60
2019-01-15T23:59:37.909Z,7.50
